sensor_id;sensor_type;location;lat;lon;timestamp;P1;durP1;ratioP1;P2;durP2;ratioP2
795;SDS011;381;48.770;9.188;2022-08-25T00:04:30;4.40;;;4.10;;
795;SDS011;381;48.770;9.188;2022-08-25T00:09:34;4.17;;;3.97;;
795;SDS011;381;48.770;9.188;2022-08-25T00:14:36;4.10;;;3.90;;
795;SDS011;381;48.770;9.188;2022-08-25T00:19:40;4.27;;;4.07;;
795;SDS011;381;48.770;9.188;2022-08-25T00:24:42;4.37;;;4.07;;
795;SDS011;381;48.770;9.188;2022-08-25T00:29:44;4.53;;;4.33;;
795;SDS011;381;48.770;9.188;2022-08-25T00:34:47;4.67;;;4.37;;
795;SDS011;381;48.770;9.188;2022-08-25T00:39:49;4.03;;;3.83;;
795;SDS011;381;48.770;9.188;2022-08-25T00:44:52;4.13;;;3.93;;
795;SDS011;381;48.770;9.188;2022-08-25T00:49:56;6.80;;;4.50;;
795;SDS011;381;48.770;9.188;2022-08-25T00:55:02;4.63;;;4.33;;
795;SDS011;381;48.770;9.188;2022-08-25T01:00:14;5.00;;;4.70;;
795;SDS011;381;48.770;9.188;2022-08-25T01:05:20;5.10;;;4.80;;
795;SDS011;381;48.770;9.188;2022-08-25T01:10:23;5.80;;;5.37;;
795;SDS011;381;48.770;9.188;2022-08-25T01:15:26;5.30;;;5.00;;
795;SDS011;381;48.770;9.188;2022-08-25T01:20:31;5.20;;;4.90;;
795;SDS011;381;48.770;9.188;2022-08-25T01:25:43;5.20;;;4.73;;
795;SDS011;381;48.770;9.188;2022-08-25T01:30:50;5.27;;;4.97;;
795;SDS011;381;48.770;9.188;2022-08-25T01:35:53;5.33;;;4.90;;
795;SDS011;381;48.770;9.188;2022-08-25T01:40:56;5.83;;;5.33;;
795;SDS011;381;48.770;9.188;2022-08-25T01:45:59;5.60;;;5.20;;
795;SDS011;381;48.770;9.188;2022-08-25T01:51:01;5.70;;;5.40;;
795;SDS011;381;48.770;9.188;2022-08-25T01:56:08;5.60;;;5.30;;
795;SDS011;381;48.770;9.188;2022-08-25T02:01:13;5.63;;;5.33;;
795;SDS011;381;48.770;9.188;2022-08-25T02:06:19;5.47;;;5.00;;
795;SDS011;381;48.770;9.188;2022-08-25T02:11:24;9.47;;;5.60;;
795;SDS011;381;48.770;9.188;2022-08-25T02:16:27;5.50;;;5.10;;
795;SDS011;381;48.770;9.188;2022-08-25T02:21:31;6.07;;;5.67;;
795;SDS011;381;48.770;9.188;2022-08-25T02:26:35;5.67;;;5.17;;
795;SDS011;381;48.770;9.188;2022-08-25T02:31:38;6.80;;;6.07;;
795;SDS011;381;48.770;9.188;2022-08-25T02:36:40;6.23;;;5.80;;
795;SDS011;381;48.770;9.188;2022-08-25T02:41:44;5.83;;;5.43;;
795;SDS011;381;48.770;9.188;2022-08-25T02:46:50;6.27;;;5.87;;
795;SDS011;381;48.770;9.188;2022-08-25T02:51:52;6.97;;;6.37;;
795;SDS011;381;48.770;9.188;2022-08-25T02:56:55;7.27;;;6.87;;
795;SDS011;381;48.770;9.188;2022-08-25T03:01:57;6.53;;;6.13;;
795;SDS011;381;48.770;9.188;2022-08-25T03:07:00;7.03;;;6.53;;
795;SDS011;381;48.770;9.188;2022-08-25T03:12:04;5.47;;;5.10;;
795;SDS011;381;48.770;9.188;2022-08-25T03:17:08;7.87;;;7.27;;
795;SDS011;381;48.770;9.188;2022-08-25T03:22:10;6.53;;;6.13;;
795;SDS011;381;48.770;9.188;2022-08-25T03:27:13;6.80;;;6.20;;
795;SDS011;381;48.770;9.188;2022-08-25T03:32:15;6.80;;;6.30;;
795;SDS011;381;48.770;9.188;2022-08-25T03:37:17;7.00;;;6.50;;
795;SDS011;381;48.770;9.188;2022-08-25T03:42:21;7.87;;;7.37;;
795;SDS011;381;48.770;9.188;2022-08-25T03:47:25;6.27;;;5.87;;
795;SDS011;381;48.770;9.188;2022-08-25T03:52:28;6.37;;;5.87;;
795;SDS011;381;48.770;9.188;2022-08-25T03:57:32;7.70;;;7.20;;
795;SDS011;381;48.770;9.188;2022-08-25T04:02:34;6.90;;;6.30;;
795;SDS011;381;48.770;9.188;2022-08-25T04:07:36;7.77;;;7.27;;
795;SDS011;381;48.770;9.188;2022-08-25T04:12:40;7.37;;;6.77;;
795;SDS011;381;48.770;9.188;2022-08-25T04:17:42;7.10;;;6.70;;
795;SDS011;381;48.770;9.188;2022-08-25T04:22:44;7.30;;;6.80;;
795;SDS011;381;48.770;9.188;2022-08-25T04:27:48;7.40;;;6.80;;
795;SDS011;381;48.770;9.188;2022-08-25T04:32:50;8.20;;;7.70;;
795;SDS011;381;48.770;9.188;2022-08-25T04:37:52;7.77;;;7.20;;
795;SDS011;381;48.770;9.188;2022-08-25T04:42:56;8.07;;;7.57;;
795;SDS011;381;48.770;9.188;2022-08-25T04:47:58;7.47;;;6.97;;
795;SDS011;381;48.770;9.188;2022-08-25T04:53:00;8.23;;;7.73;;
795;SDS011;381;48.770;9.188;2022-08-25T04:58:04;5.83;;;5.43;;
795;SDS011;381;48.770;9.188;2022-08-25T05:03:06;8.47;;;7.93;;
795;SDS011;381;48.770;9.188;2022-08-25T05:08:08;8.13;;;7.63;;
795;SDS011;381;48.770;9.188;2022-08-25T05:13:12;7.90;;;7.30;;
795;SDS011;381;48.770;9.188;2022-08-25T05:18:14;8.20;;;7.70;;
795;SDS011;381;48.770;9.188;2022-08-25T05:23:17;8.53;;;7.93;;
795;SDS011;381;48.770;9.188;2022-08-25T05:28:21;8.80;;;8.20;;
795;SDS011;381;48.770;9.188;2022-08-25T05:33:23;7.53;;;7.00;;
795;SDS011;381;48.770;9.188;2022-08-25T05:38:25;7.90;;;7.20;;
795;SDS011;381;48.770;9.188;2022-08-25T05:43:29;8.20;;;7.50;;
795;SDS011;381;48.770;9.188;2022-08-25T05:48:32;9.53;;;8.03;;
795;SDS011;381;48.770;9.188;2022-08-25T05:53:36;7.90;;;7.40;;
795;SDS011;381;48.770;9.188;2022-08-25T05:58:40;6.50;;;6.00;;
795;SDS011;381;48.770;9.188;2022-08-25T06:03:43;9.33;;;8.63;;
795;SDS011;381;48.770;9.188;2022-08-25T06:08:53;9.17;;;8.57;;
795;SDS011;381;48.770;9.188;2022-08-25T06:13:56;8.63;;;7.93;;
795;SDS011;381;48.770;9.188;2022-08-25T06:18:58;8.80;;;7.50;;
795;SDS011;381;48.770;9.188;2022-08-25T06:24:02;9.50;;;8.80;;
795;SDS011;381;48.770;9.188;2022-08-25T06:29:04;8.87;;;8.03;;
795;SDS011;381;48.770;9.188;2022-08-25T06:34:07;10.93;;;9.90;;
795;SDS011;381;48.770;9.188;2022-08-25T06:39:10;9.80;;;9.10;;
795;SDS011;381;48.770;9.188;2022-08-25T06:44:12;9.93;;;9.23;;
795;SDS011;381;48.770;9.188;2022-08-25T06:49:15;10.43;;;9.53;;
795;SDS011;381;48.770;9.188;2022-08-25T06:54:22;10.07;;;9.17;;
795;SDS011;381;48.770;9.188;2022-08-25T06:59:25;10.47;;;8.93;;
795;SDS011;381;48.770;9.188;2022-08-25T07:04:29;9.70;;;8.90;;
795;SDS011;381;48.770;9.188;2022-08-25T07:09:35;10.73;;;9.90;;
795;SDS011;381;48.770;9.188;2022-08-25T07:14:37;9.93;;;9.00;;
795;SDS011;381;48.770;9.188;2022-08-25T07:19:39;9.80;;;8.90;;
795;SDS011;381;48.770;9.188;2022-08-25T07:24:43;9.67;;;8.90;;
795;SDS011;381;48.770;9.188;2022-08-25T07:29:45;11.07;;;10.27;;
795;SDS011;381;48.770;9.188;2022-08-25T07:34:49;10.30;;;9.50;;
795;SDS011;381;48.770;9.188;2022-08-25T07:40:11;10.87;;;9.77;;
795;SDS011;381;48.770;9.188;2022-08-25T07:45:17;10.10;;;9.40;;
795;SDS011;381;48.770;9.188;2022-08-25T07:50:21;9.07;;;8.37;;
795;SDS011;381;48.770;9.188;2022-08-25T07:55:26;9.27;;;8.50;;
795;SDS011;381;48.770;9.188;2022-08-25T08:00:29;10.13;;;9.53;;
795;SDS011;381;48.770;9.188;2022-08-25T08:05:33;10.23;;;9.53;;
795;SDS011;381;48.770;9.188;2022-08-25T08:10:38;9.83;;;9.13;;
795;SDS011;381;48.770;9.188;2022-08-25T08:15:41;9.97;;;9.23;;
795;SDS011;381;48.770;9.188;2022-08-25T08:20:44;10.40;;;9.70;;
795;SDS011;381;48.770;9.188;2022-08-25T08:25:48;10.27;;;9.57;;
795;SDS011;381;48.770;9.188;2022-08-25T08:30:50;9.30;;;8.70;;
795;SDS011;381;48.770;9.188;2022-08-25T08:35:56;10.30;;;9.40;;
795;SDS011;381;48.770;9.188;2022-08-25T08:41:11;9.57;;;8.83;;
795;SDS011;381;48.770;9.188;2022-08-25T08:46:41;9.80;;;9.10;;
795;SDS011;381;48.770;9.188;2022-08-25T08:51:50;13.33;;;12.33;;
795;SDS011;381;48.770;9.188;2022-08-25T08:57:02;10.20;;;8.70;;
795;SDS011;381;48.770;9.188;2022-08-25T09:02:14;9.53;;;8.93;;
795;SDS011;381;48.770;9.188;2022-08-25T09:07:24;10.93;;;9.17;;
795;SDS011;381;48.770;9.188;2022-08-25T09:12:35;9.47;;;8.90;;
795;SDS011;381;48.770;9.188;2022-08-25T09:17:52;9.37;;;8.70;;
795;SDS011;381;48.770;9.188;2022-08-25T09:23:08;11.90;;;10.90;;
795;SDS011;381;48.770;9.188;2022-08-25T09:28:24;9.60;;;8.90;;
795;SDS011;381;48.770;9.188;2022-08-25T09:33:31;7.60;;;6.80;;
795;SDS011;381;48.770;9.188;2022-08-25T09:38:34;10.47;;;9.77;;
795;SDS011;381;48.770;9.188;2022-08-25T09:43:39;8.77;;;8.17;;
795;SDS011;381;48.770;9.188;2022-08-25T09:48:44;8.37;;;7.80;;
795;SDS011;381;48.770;9.188;2022-08-25T09:53:49;8.90;;;8.30;;
795;SDS011;381;48.770;9.188;2022-08-25T09:58:55;7.60;;;7.10;;
795;SDS011;381;48.770;9.188;2022-08-25T10:04:24;9.00;;;8.30;;
795;SDS011;381;48.770;9.188;2022-08-25T10:09:30;7.70;;;7.20;;
795;SDS011;381;48.770;9.188;2022-08-25T10:14:36;8.50;;;7.80;;
795;SDS011;381;48.770;9.188;2022-08-25T10:19:40;6.93;;;6.50;;
795;SDS011;381;48.770;9.188;2022-08-25T10:24:43;9.13;;;8.40;;
795;SDS011;381;48.770;9.188;2022-08-25T10:29:58;8.20;;;7.70;;
795;SDS011;381;48.770;9.188;2022-08-25T10:35:16;8.20;;;7.70;;
795;SDS011;381;48.770;9.188;2022-08-25T10:40:21;8.43;;;7.83;;
795;SDS011;381;48.770;9.188;2022-08-25T10:45:33;7.43;;;6.93;;
795;SDS011;381;48.770;9.188;2022-08-25T10:50:45;8.43;;;7.93;;
795;SDS011;381;48.770;9.188;2022-08-25T10:56:06;8.60;;;8.00;;
795;SDS011;381;48.770;9.188;2022-08-25T11:01:14;7.83;;;7.33;;
795;SDS011;381;48.770;9.188;2022-08-25T11:06:27;7.97;;;7.57;;
795;SDS011;381;48.770;9.188;2022-08-25T11:11:39;8.50;;;7.87;;
795;SDS011;381;48.770;9.188;2022-08-25T11:16:51;7.43;;;6.93;;
795;SDS011;381;48.770;9.188;2022-08-25T11:22:00;8.40;;;7.80;;
795;SDS011;381;48.770;9.188;2022-08-25T11:27:08;7.67;;;7.17;;
795;SDS011;381;48.770;9.188;2022-08-25T11:32:18;7.10;;;6.70;;
795;SDS011;381;48.770;9.188;2022-08-25T11:37:24;6.60;;;6.20;;
795;SDS011;381;48.770;9.188;2022-08-25T11:42:32;7.00;;;6.50;;
795;SDS011;381;48.770;9.188;2022-08-25T11:47:50;6.40;;;6.10;;
795;SDS011;381;48.770;9.188;2022-08-25T11:53:12;7.07;;;6.57;;
795;SDS011;381;48.770;9.188;2022-08-25T11:58:28;5.40;;;5.10;;
795;SDS011;381;48.770;9.188;2022-08-25T12:09:16;5.77;;;5.30;;
795;SDS011;381;48.770;9.188;2022-08-25T12:14:37;7.10;;;6.70;;
795;SDS011;381;48.770;9.188;2022-08-25T12:19:49;6.30;;;5.90;;
795;SDS011;381;48.770;9.188;2022-08-25T12:24:54;7.30;;;6.90;;
795;SDS011;381;48.770;9.188;2022-08-25T12:30:03;7.33;;;6.93;;
795;SDS011;381;48.770;9.188;2022-08-25T12:35:21;7.07;;;6.67;;
795;SDS011;381;48.770;9.188;2022-08-25T12:40:30;7.83;;;7.33;;
795;SDS011;381;48.770;9.188;2022-08-25T12:45:40;7.93;;;7.43;;
795;SDS011;381;48.770;9.188;2022-08-25T12:50:45;6.50;;;6.10;;
795;SDS011;381;48.770;9.188;2022-08-25T12:55:51;7.90;;;7.20;;
795;SDS011;381;48.770;9.188;2022-08-25T13:01:03;6.83;;;6.23;;
795;SDS011;381;48.770;9.188;2022-08-25T13:11:38;6.57;;;6.27;;
795;SDS011;381;48.770;9.188;2022-08-25T13:16:56;6.70;;;6.30;;
795;SDS011;381;48.770;9.188;2022-08-25T13:22:01;6.40;;;6.03;;
795;SDS011;381;48.770;9.188;2022-08-25T13:27:17;4.90;;;4.60;;
795;SDS011;381;48.770;9.188;2022-08-25T13:32:26;6.73;;;6.33;;
795;SDS011;381;48.770;9.188;2022-08-25T13:37:30;6.57;;;6.10;;
795;SDS011;381;48.770;9.188;2022-08-25T13:42:33;7.03;;;6.63;;
795;SDS011;381;48.770;9.188;2022-08-25T13:47:36;6.50;;;6.10;;
795;SDS011;381;48.770;9.188;2022-08-25T13:52:42;6.87;;;6.47;;
795;SDS011;381;48.770;9.188;2022-08-25T13:57:48;6.13;;;5.83;;
795;SDS011;381;48.770;9.188;2022-08-25T14:02:51;5.43;;;5.13;;
795;SDS011;381;48.770;9.188;2022-08-25T14:07:56;6.43;;;6.13;;
795;SDS011;381;48.770;9.188;2022-08-25T14:13:06;6.90;;;6.50;;
795;SDS011;381;48.770;9.188;2022-08-25T14:18:12;7.43;;;7.03;;
795;SDS011;381;48.770;9.188;2022-08-25T14:23:22;6.10;;;5.70;;
795;SDS011;381;48.770;9.188;2022-08-25T14:28:27;6.40;;;6.03;;
795;SDS011;381;48.770;9.188;2022-08-25T14:33:32;4.77;;;4.47;;
795;SDS011;381;48.770;9.188;2022-08-25T14:38:38;5.73;;;5.43;;
795;SDS011;381;48.770;9.188;2022-08-25T14:43:40;6.43;;;6.10;;
795;SDS011;381;48.770;9.188;2022-08-25T14:48:43;5.70;;;5.40;;
795;SDS011;381;48.770;9.188;2022-08-25T14:53:48;6.53;;;6.13;;
795;SDS011;381;48.770;9.188;2022-08-25T14:58:52;4.93;;;4.63;;
795;SDS011;381;48.770;9.188;2022-08-25T15:03:55;6.30;;;5.90;;
795;SDS011;381;48.770;9.188;2022-08-25T15:09:02;5.20;;;4.90;;
795;SDS011;381;48.770;9.188;2022-08-25T15:14:10;5.50;;;5.20;;
795;SDS011;381;48.770;9.188;2022-08-25T15:19:15;6.13;;;5.83;;
795;SDS011;381;48.770;9.188;2022-08-25T15:24:20;5.63;;;5.27;;
795;SDS011;381;48.770;9.188;2022-08-25T15:29:25;5.73;;;4.73;;
795;SDS011;381;48.770;9.188;2022-08-25T15:34:29;5.80;;;5.50;;
795;SDS011;381;48.770;9.188;2022-08-25T15:39:33;4.80;;;4.60;;
795;SDS011;381;48.770;9.188;2022-08-25T15:44:35;6.33;;;5.93;;
795;SDS011;381;48.770;9.188;2022-08-25T15:49:37;4.50;;;4.30;;
795;SDS011;381;48.770;9.188;2022-08-25T15:54:40;5.83;;;5.50;;
795;SDS011;381;48.770;9.188;2022-08-25T15:59:42;4.57;;;4.27;;
795;SDS011;381;48.770;9.188;2022-08-25T16:04:44;5.30;;;5.07;;
795;SDS011;381;48.770;9.188;2022-08-25T16:09:48;6.50;;;6.10;;
795;SDS011;381;48.770;9.188;2022-08-25T16:14:50;6.03;;;5.73;;
795;SDS011;381;48.770;9.188;2022-08-25T16:19:53;6.73;;;6.23;;
795;SDS011;381;48.770;9.188;2022-08-25T16:24:56;6.93;;;6.53;;
795;SDS011;381;48.770;9.188;2022-08-25T16:29:58;6.30;;;5.80;;
795;SDS011;381;48.770;9.188;2022-08-25T16:35:00;6.23;;;5.77;;
795;SDS011;381;48.770;9.188;2022-08-25T16:40:05;6.03;;;5.63;;
795;SDS011;381;48.770;9.188;2022-08-25T16:45:09;5.70;;;5.30;;
795;SDS011;381;48.770;9.188;2022-08-25T16:50:12;4.60;;;4.40;;
795;SDS011;381;48.770;9.188;2022-08-25T16:55:15;6.37;;;6.07;;
795;SDS011;381;48.770;9.188;2022-08-25T17:00:19;6.33;;;5.77;;
795;SDS011;381;48.770;9.188;2022-08-25T17:05:24;6.47;;;6.07;;
795;SDS011;381;48.770;9.188;2022-08-25T17:10:28;4.97;;;4.70;;
795;SDS011;381;48.770;9.188;2022-08-25T17:15:30;7.13;;;6.63;;
795;SDS011;381;48.770;9.188;2022-08-25T17:20:33;6.20;;;5.90;;
795;SDS011;381;48.770;9.188;2022-08-25T17:25:37;6.50;;;6.10;;
795;SDS011;381;48.770;9.188;2022-08-25T17:30:39;6.20;;;5.80;;
795;SDS011;381;48.770;9.188;2022-08-25T17:35:43;6.20;;;5.80;;
795;SDS011;381;48.770;9.188;2022-08-25T17:40:49;5.40;;;5.10;;
795;SDS011;381;48.770;9.188;2022-08-25T17:45:51;5.90;;;5.60;;
795;SDS011;381;48.770;9.188;2022-08-25T17:50:56;5.37;;;5.07;;
795;SDS011;381;48.770;9.188;2022-08-25T17:56:02;6.30;;;5.40;;
795;SDS011;381;48.770;9.188;2022-08-25T18:01:06;6.13;;;5.70;;
795;SDS011;381;48.770;9.188;2022-08-25T18:06:14;6.70;;;6.10;;
795;SDS011;381;48.770;9.188;2022-08-25T18:11:18;6.50;;;6.13;;
795;SDS011;381;48.770;9.188;2022-08-25T18:16:24;6.03;;;5.63;;
795;SDS011;381;48.770;9.188;2022-08-25T18:21:26;5.43;;;5.07;;
795;SDS011;381;48.770;9.188;2022-08-25T18:26:31;5.70;;;5.30;;
795;SDS011;381;48.770;9.188;2022-08-25T18:31:34;6.40;;;6.00;;
795;SDS011;381;48.770;9.188;2022-08-25T18:36:36;6.00;;;5.60;;
795;SDS011;381;48.770;9.188;2022-08-25T18:41:40;5.00;;;4.60;;
795;SDS011;381;48.770;9.188;2022-08-25T18:46:43;5.57;;;5.27;;
795;SDS011;381;48.770;9.188;2022-08-25T18:51:45;5.80;;;5.50;;
795;SDS011;381;48.770;9.188;2022-08-25T18:56:49;6.20;;;5.90;;
795;SDS011;381;48.770;9.188;2022-08-25T19:01:52;5.73;;;5.23;;
795;SDS011;381;48.770;9.188;2022-08-25T19:06:56;5.93;;;5.53;;
795;SDS011;381;48.770;9.188;2022-08-25T19:11:59;6.10;;;5.53;;
795;SDS011;381;48.770;9.188;2022-08-25T19:17:02;7.37;;;6.87;;
795;SDS011;381;48.770;9.188;2022-08-25T19:22:04;6.73;;;6.27;;
795;SDS011;381;48.770;9.188;2022-08-25T19:27:08;6.23;;;5.83;;
795;SDS011;381;48.770;9.188;2022-08-25T19:32:10;5.67;;;5.27;;
795;SDS011;381;48.770;9.188;2022-08-25T19:37:14;6.20;;;5.80;;
795;SDS011;381;48.770;9.188;2022-08-25T19:42:18;5.97;;;5.47;;
795;SDS011;381;48.770;9.188;2022-08-25T19:47:20;6.17;;;5.67;;
795;SDS011;381;48.770;9.188;2022-08-25T19:52:23;6.10;;;5.60;;
795;SDS011;381;48.770;9.188;2022-08-25T19:57:27;5.93;;;5.50;;
795;SDS011;381;48.770;9.188;2022-08-25T20:02:29;5.40;;;5.00;;
795;SDS011;381;48.770;9.188;2022-08-25T20:07:31;5.50;;;5.10;;
795;SDS011;381;48.770;9.188;2022-08-25T20:12:35;6.53;;;6.10;;
795;SDS011;381;48.770;9.188;2022-08-25T20:17:37;5.60;;;5.30;;
795;SDS011;381;48.770;9.188;2022-08-25T20:22:40;6.20;;;5.80;;
795;SDS011;381;48.770;9.188;2022-08-25T20:27:44;6.10;;;5.50;;
795;SDS011;381;48.770;9.188;2022-08-25T20:32:48;5.43;;;5.13;;
795;SDS011;381;48.770;9.188;2022-08-25T20:37:50;6.30;;;5.90;;
795;SDS011;381;48.770;9.188;2022-08-25T20:42:54;6.27;;;5.87;;
795;SDS011;381;48.770;9.188;2022-08-25T20:47:58;5.90;;;5.57;;
795;SDS011;381;48.770;9.188;2022-08-25T20:53:01;5.77;;;5.37;;
795;SDS011;381;48.770;9.188;2022-08-25T20:58:06;7.17;;;6.00;;
795;SDS011;381;48.770;9.188;2022-08-25T21:03:08;6.27;;;5.77;;
795;SDS011;381;48.770;9.188;2022-08-25T21:08:11;6.33;;;5.93;;
795;SDS011;381;48.770;9.188;2022-08-25T21:13:14;6.10;;;5.57;;
795;SDS011;381;48.770;9.188;2022-08-25T21:18:16;6.40;;;6.00;;
795;SDS011;381;48.770;9.188;2022-08-25T21:23:18;6.57;;;6.17;;
795;SDS011;381;48.770;9.188;2022-08-25T21:28:22;6.33;;;5.83;;
795;SDS011;381;48.770;9.188;2022-08-25T21:33:24;6.20;;;5.90;;
795;SDS011;381;48.770;9.188;2022-08-25T21:38:26;6.30;;;5.73;;
795;SDS011;381;48.770;9.188;2022-08-25T21:43:29;5.80;;;5.40;;
795;SDS011;381;48.770;9.188;2022-08-25T21:48:31;6.27;;;5.87;;
795;SDS011;381;48.770;9.188;2022-08-25T21:53:33;5.57;;;5.23;;
795;SDS011;381;48.770;9.188;2022-08-25T21:58:37;6.07;;;5.67;;
795;SDS011;381;48.770;9.188;2022-08-25T22:03:39;5.87;;;5.47;;
795;SDS011;381;48.770;9.188;2022-08-25T22:08:42;7.23;;;6.63;;
795;SDS011;381;48.770;9.188;2022-08-25T22:13:46;7.63;;;5.20;;
795;SDS011;381;48.770;9.188;2022-08-25T22:18:49;6.50;;;6.10;;
795;SDS011;381;48.770;9.188;2022-08-25T22:23:51;5.70;;;5.30;;
795;SDS011;381;48.770;9.188;2022-08-25T22:28:56;5.73;;;5.40;;
795;SDS011;381;48.770;9.188;2022-08-25T22:34:00;6.60;;;6.10;;
795;SDS011;381;48.770;9.188;2022-08-25T22:39:04;6.10;;;5.70;;
795;SDS011;381;48.770;9.188;2022-08-25T22:44:09;6.57;;;6.17;;
795;SDS011;381;48.770;9.188;2022-08-25T22:49:11;6.60;;;6.10;;
795;SDS011;381;48.770;9.188;2022-08-25T22:54:13;6.67;;;6.10;;
795;SDS011;381;48.770;9.188;2022-08-25T22:59:16;6.23;;;5.83;;
795;SDS011;381;48.770;9.188;2022-08-25T23:04:18;6.03;;;5.73;;
795;SDS011;381;48.770;9.188;2022-08-25T23:09:21;6.20;;;5.80;;
795;SDS011;381;48.770;9.188;2022-08-25T23:14:24;6.33;;;5.93;;
795;SDS011;381;48.770;9.188;2022-08-25T23:19:26;6.13;;;5.80;;
795;SDS011;381;48.770;9.188;2022-08-25T23:24:29;8.83;;;5.97;;
795;SDS011;381;48.770;9.188;2022-08-25T23:29:34;6.83;;;6.43;;
795;SDS011;381;48.770;9.188;2022-08-25T23:34:37;6.40;;;6.00;;
795;SDS011;381;48.770;9.188;2022-08-25T23:39:42;6.20;;;5.70;;
795;SDS011;381;48.770;9.188;2022-08-25T23:44:46;6.03;;;5.53;;
795;SDS011;381;48.770;9.188;2022-08-25T23:49:48;5.80;;;5.40;;
795;SDS011;381;48.770;9.188;2022-08-25T23:54:51;6.20;;;5.80;;
795;SDS011;381;48.770;9.188;2022-08-25T23:59:54;5.60;;;5.30;;
